Time;durP1;ratioP1;P1;durP2;ratioP2;P2;SDS_P1;SDS_P2;PMS_P1;PMS_P2;Temp;Humidity;BMP_temperature;BMP_pressure;BME280_temperature;BME280_humidity;BME280_pressure;Samples;Min_cycle;Max_cycle;Signal;HPM_P1;HPM_P2
2022/10/05 00:01:42;;;;;;;5.10;2.65;;;;;;;10.87;70.50;100459.75;1713592;81;21873;-74
2022/10/05 00:04:20;;;;;;;4.12;2.50;;;;;;;10.84;70.75;100462.16;1718633;81;21049;-73
2022/10/05 00:06:56;;;;;;;5.45;3.00;;;;;;;10.81;70.98;100462.42;1722052;81;21022;-73
2022/10/05 00:09:22;;;;;;;5.75;3.50;;;;;;;10.77;71.19;100454.36;1719213;81;21707;-72
2022/10/05 00:11:49;;;;;;;5.20;2.83;;;;;;;10.77;71.42;100466.24;1715699;81;20998;-73
2022/10/05 00:14:21;;;;;;;4.05;2.83;;;;;;;10.77;71.61;100463.60;1715501;81;22382;-72
2022/10/05 00:16:47;;;;;;;3.50;2.50;;;;;;;10.76;71.79;100470.33;1719061;81;21101;-72
2022/10/05 00:19:30;;;;;;;4.60;2.55;;;;;;;10.77;71.88;100466.24;1717796;81;20998;-72
2022/10/05 00:22:18;;;;;;;4.90;2.47;;;;;;;10.79;71.99;100472.24;1712311;81;21041;-73
2022/10/05 00:24:48;;;;;;;3.92;2.77;;;;;;;10.78;72.03;100471.88;1711365;81;21050;-72
2022/10/05 00:27:22;;;;;;;4.33;2.87;;;;;;;10.78;72.12;100481.13;1712614;81;22592;-72
2022/10/05 00:29:51;;;;;;;4.28;2.50;;;;;;;10.75;72.22;100473.94;1710151;82;21453;-71
2022/10/05 00:32:17;;;;;;;6.78;2.90;;;;;;;10.74;72.36;100481.03;1715188;82;21431;-76
2022/10/05 00:34:44;;;;;;;4.85;2.70;;;;;;;10.71;72.43;100482.59;1682427;83;22194;-75
2022/10/05 00:37:13;;;;;;;5.42;3.00;;;;;;;10.71;72.56;100493.16;1684631;83;21027;-72
2022/10/05 00:39:40;;;;;;;4.28;2.50;;;;;;;10.68;72.64;100485.45;1717417;82;22166;-72
2022/10/05 00:42:26;;;;;;;6.33;2.72;;;;;;;10.68;72.75;100478.85;1689209;83;21532;-72
2022/10/05 00:45:13;;;;;;;4.95;2.75;;;;;;;10.68;72.78;100478.85;1680772;83;21135;-72
2022/10/05 00:47:54;;;;;;;4.50;2.77;;;;;;;10.66;72.82;100492.67;1724975;81;20979;-73
2022/10/05 00:50:47;;;;;;;4.87;2.70;;;;;;;10.64;72.90;100489.80;1683659;83;21005;-74
2022/10/05 00:53:38;;;;;;;4.00;2.83;;;;;;;10.63;72.94;100489.44;1684765;83;21954;-72
2022/10/05 00:56:18;;;;;;;5.65;2.98;;;;;;;10.59;73.10;100501.53;1690448;83;21066;-73
2022/10/05 00:59:06;;;;;;;4.50;3.05;;;;;;;10.56;73.25;100509.70;1682226;82;21366;-73
2022/10/05 01:01:54;;;;;;;5.25;2.80;;;;;;;10.55;73.42;100505.88;1688090;83;21012;-74
2022/10/05 01:04:54;;;;;;;4.50;2.70;;;;;;;10.56;73.53;100510.19;1706702;82;20996;-72
2022/10/05 01:07:48;;;;;;;4.15;2.35;;;;;;;10.55;73.64;100504.06;1686275;83;21868;-73
2022/10/05 01:10:32;;;;;;;2.75;2.47;;;;;;;10.57;73.73;100505.27;1682153;83;21043;-73
2022/10/05 01:13:08;;;;;;;4.25;2.77;;;;;;;10.57;73.84;100503.46;1705573;82;21480;-73
2022/10/05 01:15:44;;;;;;;4.20;2.75;;;;;;;10.58;73.96;100505.63;1714719;82;21050;-73
2022/10/05 01:18:17;;;;;;;5.55;2.90;;;;;;;10.58;74.11;100509.58;1707637;82;20956;-73
2022/10/05 01:20:59;;;;;;;3.15;2.60;;;;;;;10.58;74.20;100510.91;1684251;82;21804;-73
2022/10/05 01:24:08;;;;;;;4.08;3.10;;;;;;;10.59;74.29;100527.11;1707858;82;21000;-71
2022/10/05 01:26:49;;;;;;;4.92;3.00;;;;;;;10.61;74.39;100535.75;1713684;82;21067;-74
2022/10/05 01:29:42;;;;;;;5.40;2.72;;;;;;;10.66;74.37;100543.34;1714637;81;21056;-72
2022/10/05 01:32:31;;;;;;;4.67;3.05;;;;;;;10.67;74.42;100543.22;1720990;81;20967;-73
2022/10/05 01:35:29;;;;;;;2.72;2.35;;;;;;;10.69;74.46;100554.50;1711206;81;22924;-73
2022/10/05 01:38:17;;;;;;;3.22;2.50;;;;;;;10.74;74.45;100553.68;1717684;81;21006;-71
2022/10/05 01:41:01;;;;;;;4.78;2.50;;;;;;;10.76;74.37;100554.39;1722049;82;20987;-72
2022/10/05 01:43:56;;;;;;;4.90;2.22;;;;;;;10.78;74.35;100545.86;1710913;82;21012;-72
2022/10/05 01:46:36;;;;;;;3.35;2.17;;;;;;;10.79;74.29;100555.47;1719053;82;21027;-72
2022/10/05 01:49:14;;;;;;;3.05;2.50;;;;;;;10.81;74.27;100552.73;1714112;82;21927;-72
2022/10/05 01:51:59;;;;;;;3.92;2.10;;;;;;;10.82;74.26;100556.58;1694798;82;20959;-73
2022/10/05 01:54:41;;;;;;;3.62;2.17;;;;;;;10.82;74.22;100562.34;1713817;81;21079;-73
2022/10/05 01:57:29;;;;;;;4.15;2.22;;;;;;;10.82;74.20;100555.25;1713095;82;21008;-73
2022/10/05 02:00:05;;;;;;;5.25;2.58;;;;;;;10.83;74.22;100559.58;1692084;83;21473;-73
2022/10/05 02:02:40;;;;;;;3.65;2.30;;;;;;;10.82;74.22;100568.47;1688117;83;22911;-72
2022/10/05 02:05:19;;;;;;;4.40;2.50;;;;;;;10.83;74.27;100571.95;1719032;83;21488;-72
2022/10/05 02:08:17;;;;;;;3.90;2.50;;;;;;;10.83;74.25;100564.86;1710424;82;21058;-72
2022/10/05 02:11:07;;;;;;;3.75;2.30;;;;;;;10.83;74.27;100564.86;1721232;82;21041;-72
2022/10/05 02:13:58;;;;;;;4.25;2.30;;;;;;;10.83;74.32;100570.14;1645724;82;22216;-72
2022/10/05 02:16:41;;;;;;;3.15;2.25;;;;;;;10.85;74.29;100571.34;1709622;82;22269;-72
2022/10/05 02:19:42;;;;;;;2.85;2.17;;;;;;;10.85;74.25;100575.30;1713233;82;21454;-81
2022/10/05 02:22:18;;;;;;;3.52;2.50;;;;;;;10.85;74.31;100578.79;1707974;82;21543;-73
2022/10/05 02:24:51;;;;;;;3.60;2.22;;;;;;;10.86;74.32;100581.79;1666355;83;21062;-73
2022/10/05 02:27:24;;;;;;;3.25;2.50;;;;;;;10.88;74.33;100589.59;1677535;83;21106;-72
2022/10/05 02:29:51;;;;;;;5.05;2.40;;;;;;;10.89;74.34;100592.11;1685274;83;21930;-71
2022/10/05 02:32:26;;;;;;;4.42;2.60;;;;;;;10.91;74.31;100589.37;1692491;83;21020;-73
2022/10/05 02:34:53;;;;;;;2.85;2.27;;;;;;;10.94;74.30;100592.25;1716605;82;21027;-72
2022/10/05 02:38:02;;;;;;;3.75;2.27;;;;;;;10.98;74.22;100601.61;1660497;83;21046;-73
2022/10/05 02:41:02;;;;;;;3.27;2.10;;;;;;;10.97;74.15;100592.84;1703960;82;21528;-73
2022/10/05 02:43:53;;;;;;;5.05;2.70;;;;;;;10.98;74.13;100597.17;1695452;83;21835;-72
2022/10/05 02:46:41;;;;;;;5.20;2.40;;;;;;;10.98;74.09;100598.97;1733209;82;21487;-73
2022/10/05 02:49:20;;;;;;;3.33;2.50;;;;;;;10.96;73.98;100607.50;1706085;82;20999;-73
2022/10/05 02:52:10;;;;;;;3.25;2.37;;;;;;;10.92;73.96;100607.39;1707811;81;21005;-73
2022/10/05 02:54:56;;;;;;;4.80;2.65;;;;;;;10.88;74.00;100618.66;1709908;82;21463;-73
2022/10/05 02:57:54;;;;;;;4.08;2.40;;;;;;;10.82;74.07;100619.98;1717467;81;21854;-73
2022/10/05 03:00:24;;;;;;;4.30;2.37;;;;;;;10.79;74.05;100617.56;1688085;83;21026;-74
2022/10/05 03:03:33;;;;;;;6.00;2.90;;;;;;;10.75;74.09;100617.45;1714675;82;21026;-71
2022/10/05 03:06:11;;;;;;;3.75;2.75;;;;;;;10.71;74.14;100615.14;1713482;82;21020;-72
2022/10/05 03:09:01;;;;;;;4.40;3.00;;;;;;;10.66;74.24;100626.55;1710301;82;21015;-71
2022/10/05 03:11:45;;;;;;;4.08;2.52;;;;;;;10.60;74.33;100630.48;1703049;82;22525;-73
2022/10/05 03:14:18;;;;;;;3.58;2.67;;;;;;;10.55;74.49;100631.33;1714564;81;20990;-73
2022/10/05 03:17:01;;;;;;;4.15;2.47;;;;;;;10.52;74.61;100633.72;1710293;81;21070;-74
2022/10/05 03:20:12;;;;;;;4.20;2.40;;;;;;;10.50;74.72;100640.89;1717324;81;21095;-73
2022/10/05 03:22:57;;;;;;;5.25;2.83;;;;;;;10.46;74.84;100633.33;1626043;86;21150;-72
2022/10/05 03:25:47;;;;;;;5.47;2.98;;;;;;;10.42;74.92;100637.14;1696555;83;21940;-73
2022/10/05 03:28:37;;;;;;;4.72;2.92;;;;;;;10.38;75.01;100647.09;1704967;82;21062;-72
2022/10/05 03:31:28;;;;;;;4.75;2.90;;;;;;;10.35;75.12;100651.77;1711759;82;20947;-77
2022/10/05 03:34:10;;;;;;;5.70;2.92;;;;;;;10.33;75.15;100647.94;1707883;82;21026;-72
2022/10/05 03:36:57;;;;;;;3.12;2.70;;;;;;;10.28;75.28;100654.86;1703876;83;21070;-72
2022/10/05 03:39:46;;;;;;;7.92;2.92;;;;;;;10.25;75.35;100659.05;1740909;81;22425;-72
2022/10/05 03:42:39;;;;;;;6.50;2.83;;;;;;;10.21;75.41;100664.14;1678555;83;21520;-73
2022/10/05 03:45:43;;;;;;;4.55;3.05;;;;;;;10.16;75.49;100659.69;1685578;81;21039;-72
2022/10/05 03:48:31;;;;;;;3.67;2.60;;;;;;;10.12;75.61;100658.22;1688764;83;20995;-72
2022/10/05 03:51:09;;;;;;;4.40;3.10;;;;;;;10.10;75.72;100666.73;1729021;81;21031;-71
2022/10/05 03:53:46;;;;;;;4.37;3.00;;;;;;;10.04;75.84;100670.67;1709803;82;22419;-71
2022/10/05 03:56:17;;;;;;;4.53;3.00;;;;;;;10.00;75.99;100666.55;1672573;83;21525;-71
2022/10/05 03:58:59;;;;;;;6.67;3.20;;;;;;;9.99;76.16;100665.34;1694391;83;21069;-72
2022/10/05 04:01:34;;;;;;;5.55;3.27;;;;;;;9.96;76.32;100666.42;1711825;81;21046;-72
2022/10/05 04:04:03;;;;;;;7.28;3.15;;;;;;;9.93;76.37;100663.14;1678282;84;21024;-71
2022/10/05 04:06:33;;;;;;;4.35;3.35;;;;;;;9.90;76.48;100662.89;1712874;82;21843;-72
2022/10/05 04:09:11;;;;;;;5.90;3.67;;;;;;;9.89;76.58;100666.48;1723997;82;21109;-71
2022/10/05 04:12:07;;;;;;;4.53;3.27;;;;;;;9.87;76.64;100668.40;1688086;83;21028;-74
2022/10/05 04:14:42;;;;;;;6.28;3.40;;;;;;;9.86;76.74;100671.15;1725652;82;21140;-71
2022/10/05 04:17:13;;;;;;;4.65;3.52;;;;;;;9.85;76.82;100674.75;1670408;84;21513;-79
2022/10/05 04:19:46;;;;;;;10.23;4.83;;;;;;;9.83;76.92;100677.94;1697625;82;21927;-72
2022/10/05 04:22:26;;;;;;;5.03;3.80;;;;;;;9.83;76.97;100679.27;1709890;82;21358;-71
2022/10/05 04:25:03;;;;;;;6.12;3.60;;;;;;;9.81;77.01;100685.13;1722672;82;21062;-72
2022/10/05 04:27:38;;;;;;;5.50;3.80;;;;;;;9.80;77.11;100682.97;1717821;82;21463;-72
2022/10/05 04:30:11;;;;;;;8.33;3.70;;;;;;;9.80;77.16;100690.88;1661580;83;21126;-75
2022/10/05 04:32:42;;;;;;;6.00;3.80;;;;;;;9.80;77.13;100692.20;1689991;83;22409;-73
2022/10/05 04:35:57;;;;;;;6.78;3.58;;;;;;;9.80;77.19;100694.84;1683992;83;21485;-72
2022/10/05 04:39:02;;;;;;;6.15;3.70;;;;;;;9.81;77.28;100693.05;1711948;81;21005;-82
2022/10/05 04:41:56;;;;;;;5.03;3.50;;;;;;;9.85;77.38;100702.45;1685796;83;21059;-72
2022/10/05 04:44:40;;;;;;;10.95;3.60;;;;;;;9.89;77.44;100702.58;1690456;83;21027;-73
2022/10/05 04:47:51;;;;;;;6.92;4.20;;;;;;;9.96;77.45;100707.80;1680187;82;21930;-74
2022/10/05 04:50:38;;;;;;;5.87;3.95;;;;;;;10.00;77.29;100703.97;1716898;81;21122;-77
2022/10/05 04:53:24;;;;;;;9.38;3.90;;;;;;;10.08;76.98;100705.59;1700511;82;21034;-75
2022/10/05 04:56:10;;;;;;;8.55;5.28;;;;;;;10.13;76.58;100716.64;1727895;82;21085;-75
2022/10/05 04:59:22;;;;;;;5.28;3.77;;;;;;;10.19;76.29;100715.37;1728267;81;21117;-72
2022/10/05 05:01:54;;;;;;;5.47;3.33;;;;;;;10.26;76.14;100719.29;1720193;81;21923;-73
2022/10/05 05:04:36;;;;;;;5.28;3.22;;;;;;;10.35;75.79;100720.42;1715196;82;29006;-72
2022/10/05 05:07:21;;;;;;;6.47;3.10;;;;;;;10.41;75.68;100721.28;1722596;81;21086;-72
2022/10/05 05:10:18;;;;;;;6.47;2.87;;;;;;;10.49;75.59;100724.20;1721384;82;21058;-72
2022/10/05 05:13:07;;;;;;;4.10;2.98;;;;;;;10.54;75.21;100725.56;1716323;81;21502;-71
2022/10/05 05:15:48;;;;;;;5.28;3.15;;;;;;;10.58;74.90;100722.20;1704669;81;21761;-72
2022/10/05 05:18:35;;;;;;;5.60;3.00;;;;;;;10.60;74.65;100723.77;1655943;81;21166;-71
2022/10/05 05:21:48;;;;;;;7.35;2.95;;;;;;;10.66;74.29;100732.21;1716825;82;21123;-72
2022/10/05 05:24:23;;;;;;;4.35;2.95;;;;;;;10.72;74.04;100734.41;1734456;81;21047;-73
2022/10/05 05:27:21;;;;;;;4.40;3.20;;;;;;;10.77;73.66;100742.83;1732841;81;21027;-75
2022/10/05 05:30:15;;;;;;;3.25;2.92;;;;;;;10.79;73.38;100745.70;1725481;81;22554;-71
2022/10/05 05:32:54;;;;;;;7.28;2.80;;;;;;;10.83;73.31;100740.58;1694924;81;21018;-72
2022/10/05 05:35:35;;;;;;;7.45;3.45;;;;;;;10.89;73.35;100744.55;1734748;81;21054;-71
2022/10/05 05:38:55;;;;;;;5.92;3.52;;;;;;;10.93;73.30;100753.95;1724826;81;20980;-72
2022/10/05 05:41:40;;;;;;;5.80;3.05;;;;;;;10.98;73.22;100760.20;1729870;81;20964;-73
2022/10/05 05:44:36;;;;;;;5.00;3.40;;;;;;;11.02;73.07;100760.34;1724229;81;21485;-73
2022/10/05 05:47:19;;;;;;;7.62;3.27;;;;;;;11.04;73.02;100764.55;1729214;81;21054;-75
2022/10/05 05:50:14;;;;;;;4.33;3.62;;;;;;;11.08;72.95;100767.80;1732156;81;21023;-71
2022/10/05 05:52:48;;;;;;;6.12;3.35;;;;;;;11.10;72.72;100781.77;1716534;81;21515;-72
2022/10/05 05:55:27;;;;;;;5.60;3.15;;;;;;;11.11;72.57;100780.33;1719342;81;20994;-71
2022/10/05 05:57:58;;;;;;;5.40;3.20;;;;;;;11.14;72.33;100788.50;1693943;83;21819;-73
2022/10/05 06:00:33;;;;;;;4.22;3.20;;;;;;;11.17;72.26;100786.94;1688274;83;20964;-72
2022/10/05 06:03:20;;;;;;;4.10;2.90;;;;;;;11.17;71.99;100785.13;1729044;81;21046;-71
2022/10/05 06:05:56;;;;;;;3.95;3.30;;;;;;;11.19;71.86;100788.98;1719007;81;21066;-74
2022/10/05 06:08:44;;;;;;;4.53;3.30;;;;;;;11.20;71.71;100792.49;1721224;81;21018;-74
2022/10/05 06:11:32;;;;;;;6.42;3.75;;;;;;;11.24;71.68;100800.06;1721085;81;22507;-73
2022/10/05 06:14:07;;;;;;;5.42;3.00;;;;;;;11.28;71.46;100804.62;1720169;81;20983;-73
2022/10/05 06:16:48;;;;;;;4.53;2.90;;;;;;;11.30;71.23;100809.35;1726099;82;21084;-73
2022/10/05 06:19:20;;;;;;;3.42;2.83;;;;;;;11.30;70.62;100816.80;1720404;81;21130;-74
2022/10/05 06:22:07;;;;;;;5.53;2.70;;;;;;;11.29;70.41;100821.73;1718752;81;21067;-74
2022/10/05 06:25:13;;;;;;;7.28;3.30;;;;;;;11.30;70.33;100828.70;1698433;81;22788;-73
2022/10/05 06:28:13;;;;;;;4.47;3.22;;;;;;;11.33;69.99;100821.01;1723327;82;20987;-75
2022/10/05 06:31:20;;;;;;;7.80;2.87;;;;;;;11.32;69.83;100833.39;1713093;81;21114;-75
2022/10/05 06:33:51;;;;;;;4.53;2.80;;;;;;;11.35;69.51;100842.89;1708232;82;21080;-73
2022/10/05 06:36:41;;;;;;;4.00;2.40;;;;;;;11.38;69.08;100848.77;1709964;82;21012;-73
2022/10/05 06:39:37;;;;;;;5.80;2.60;;;;;;;11.37;68.93;100851.06;1714529;82;21893;-72
2022/10/05 06:42:33;;;;;;;4.08;2.60;;;;;;;11.41;68.90;100859.15;1716899;82;21023;-72
2022/10/05 06:46:03;;;;;;;5.85;2.60;;;;;;;11.46;68.35;100852.17;1717521;82;21077;-72
2022/10/05 06:48:47;;;;;;;4.90;2.42;;;;;;;11.53;68.40;100857.86;1714139;82;21110;-73
2022/10/05 06:51:39;;;;;;;3.20;2.40;;;;;;;11.63;67.94;100862.81;1701511;82;21585;-74
2022/10/05 06:54:31;;;;;;;6.62;2.55;;;;;;;11.68;68.01;100864.16;1708746;82;21928;-73
2022/10/05 06:57:32;;;;;;;3.50;2.40;;;;;;;11.78;68.13;100861.66;1731409;82;21015;-74
2022/10/05 07:00:07;;;;;;;4.40;2.50;;;;;;;11.89;68.03;100876.73;1717990;82;21008;-74
2022/10/05 07:03:01;;;;;;;3.30;2.30;;;;;;;11.91;66.20;100867.71;1713270;82;21065;-74
2022/10/05 07:06:01;;;;;;;3.67;2.65;;;;;;;11.90;66.35;100875.77;1726360;82;21007;-73
2022/10/05 07:09:13;;;;;;;3.45;2.45;;;;;;;11.88;66.08;100874.58;1697564;82;21851;-74
2022/10/05 07:12:22;;;;;;;4.67;2.72;;;;;;;11.88;65.71;100875.06;1725396;81;21003;-73
2022/10/05 07:15:22;;;;;;;5.28;3.10;;;;;;;11.90;65.68;100870.00;1712627;82;21376;-72
2022/10/05 07:18:21;;;;;;;5.72;3.02;;;;;;;11.93;65.40;100869.75;1714042;82;21043;-74
2022/10/05 07:21:07;;;;;;;4.45;2.92;;;;;;;11.96;65.59;100865.53;1712065;81;21054;-75
2022/10/05 07:24:14;;;;;;;3.25;2.65;;;;;;;12.01;65.34;100860.74;1711189;82;22144;-74
2022/10/05 07:27:11;;;;;;;4.62;2.52;;;;;;;12.04;65.22;100868.44;1686845;82;21494;-75
2022/10/05 07:30:01;;;;;;;3.33;2.50;;;;;;;12.15;65.23;100865.44;1714295;81;21071;-74
2022/10/05 07:33:18;;;;;;;4.65;2.40;;;;;;;12.22;65.25;100867.97;1700732;83;21043;-74
2022/10/05 07:39:00;;;;;;;3.52;2.10;;;;;;;12.55;64.43;100891.81;1714778;82;21924;-72
2022/10/05 07:41:47;;;;;;;3.85;2.22;;;;;;;12.63;63.85;100890.34;1715444;82;21046;-72
2022/10/05 07:44:33;;;;;;;3.25;2.30;;;;;;;12.69;63.55;100899.98;1718382;82;21438;-69
2022/10/05 07:47:40;;;;;;;2.42;2.05;;;;;;;12.66;63.02;100902.89;1710195;82;21000;-71
2022/10/05 07:50:36;;;;;;;3.37;2.40;;;;;;;12.67;62.81;100893.97;1703609;83;21040;-72
2022/10/05 07:53:17;;;;;;;6.33;2.17;;;;;;;12.69;62.36;100893.84;1733916;82;21826;-71
2022/10/05 07:55:51;;;;;;;5.05;2.12;;;;;;;12.66;62.67;100902.89;1712652;82;20945;-72
2022/10/05 07:58:33;;;;;;;2.52;2.17;;;;;;;12.75;62.91;100905.29;1699650;82;34616;-70
2022/10/05 08:01:18;;;;;;;3.35;2.10;;;;;;;12.83;62.52;100909.47;1713610;82;20952;-72
2022/10/05 08:04:03;;;;;;;3.02;2.40;;;;;;;12.92;62.59;100909.21;1707133;82;20987;-69
2022/10/05 08:07:02;;;;;;;4.45;2.45;;;;;;;13.02;62.41;100898.22;1708546;83;21899;-69
2022/10/05 08:10:01;;;;;;;8.30;2.90;;;;;;;13.17;62.30;100900.47;1726126;82;21015;-72
2022/10/05 08:12:35;;;;;;;8.38;2.70;;;;;;;13.33;62.02;100912.04;1735064;82;21058;-73
2022/10/05 08:15:15;;;;;;;18.92;3.00;;;;;;;13.47;61.48;100921.50;1712830;82;21015;-70
2022/10/05 08:17:52;;;;;;;8.78;2.40;;;;;;;13.45;60.51;100908.84;1724317;82;20999;-73
2022/10/05 08:20:39;;;;;;;6.00;2.25;;;;;;;13.49;60.58;100914.73;1729263;81;21827;-69
2022/10/05 08:23:26;;;;;;;2.60;1.82;;;;;;;13.59;60.27;100905.88;1705819;82;21031;-71
2022/10/05 08:26:23;;;;;;;7.35;3.20;;;;;;;13.74;60.33;100910.40;1717760;81;21058;-71
2022/10/05 08:29:21;;;;;;;4.65;2.30;;;;;;;13.83;59.86;100928.70;1724691;81;21027;-71
2022/10/05 08:31:55;;;;;;;3.67;1.72;;;;;;;13.89;58.84;100919.70;1724461;80;21067;-71
2022/10/05 08:34:39;;;;;;;5.25;2.02;;;;;;;13.97;59.14;100928.36;1724825;81;22671;-71
2022/10/05 08:37:35;;;;;;;4.15;1.70;;;;;;;14.03;58.63;100929.17;1717411;82;21043;-74
2022/10/05 08:40:24;;;;;;;3.40;1.87;;;;;;;14.12;58.66;100925.73;1724531;81;21066;-74
2022/10/05 08:43:28;;;;;;;3.30;1.87;;;;;;;14.14;57.80;100918.47;1733085;81;20996;-71
2022/10/05 08:46:35;;;;;;;2.98;1.90;;;;;;;14.13;57.45;100915.47;1688020;82;21027;-71
2022/10/05 08:49:43;;;;;;;3.62;1.82;;;;;;;14.11;57.31;100930.70;1711189;82;21993;-71
2022/10/05 08:52:27;;;;;;;3.47;1.87;;;;;;;14.05;56.89;100917.93;1703023;82;21103;-71
2022/10/05 08:55:13;;;;;;;2.35;1.60;;;;;;;13.98;57.29;100921.59;1711594;82;21043;-70
2022/10/05 08:58:23;;;;;;;3.08;1.67;;;;;;;13.95;56.92;100915.70;1710336;82;21048;-69
2022/10/05 09:01:07;;;;;;;3.87;1.60;;;;;;;13.90;57.20;100932.53;1711980;82;21130;-73
2022/10/05 09:03:58;;;;;;;4.87;1.65;;;;;;;13.92;57.22;100923.45;1708471;83;21923;-71
2022/10/05 09:07:15;;;;;;;3.72;1.72;;;;;;;13.93;57.81;100923.80;1695721;83;21016;-72
2022/10/05 09:10:07;;;;;;;3.60;1.50;;;;;;;14.01;57.90;100929.31;1679298;83;21045;-71
2022/10/05 09:12:54;;;;;;;1.90;1.42;;;;;;;14.12;57.96;100923.08;1712062;83;21027;-70
2022/10/05 09:15:35;;;;;;;5.35;1.70;;;;;;;14.27;57.55;100921.75;1656953;84;21030;-72
2022/10/05 09:18:30;;;;;;;3.30;1.40;;;;;;;14.37;56.33;100923.12;1678732;84;22552;-73
2022/10/05 09:21:36;;;;;;;2.90;1.52;;;;;;;14.43;56.46;100923.93;1676729;84;21044;-72
2022/10/05 09:24:17;;;;;;;2.08;1.52;;;;;;;14.62;55.95;100934.33;1675946;84;21086;-71
2022/10/05 09:27:10;;;;;;;2.37;1.50;;;;;;;14.70;54.60;100922.05;1678843;84;21034;-71
2022/10/05 09:30:31;;;;;;;2.95;1.55;;;;;;;14.72;54.97;100937.86;1671961;84;21061;-72
2022/10/05 09:33:25;;;;;;;2.55;1.62;;;;;;;14.73;54.65;100934.22;1673865;83;21919;-72
2022/10/05 09:36:18;;;;;;;2.95;1.52;;;;;;;14.73;54.55;100940.38;1668095;84;20988;-70
2022/10/05 09:39:14;;;;;;;3.47;1.57;;;;;;;14.77;54.28;100935.66;1612917;85;21064;-71
2022/10/05 09:42:04;;;;;;;2.75;1.40;;;;;;;14.77;54.18;100929.84;1658209;85;21460;-71
2022/10/05 09:44:53;;;;;;;2.50;1.50;;;;;;;14.71;53.93;100948.98;1644992;85;21060;-72
2022/10/05 09:47:45;;;;;;;2.08;1.42;;;;;;;14.63;53.67;100956.78;1621097;85;21956;-70
2022/10/05 09:51:11;;;;;;;2.30;1.45;;;;;;;14.57;53.89;100947.55;1685331;83;21029;-71
2022/10/05 09:54:04;;;;;;;5.40;1.47;;;;;;;14.62;54.31;100953.78;1605219;87;21106;-74
2022/10/05 09:57:02;;;;;;;3.45;1.40;;;;;;;14.70;54.57;100948.64;1610111;87;21038;-70
2022/10/05 09:59:58;;;;;;;3.15;1.45;;;;;;;14.74;54.39;100943.88;1672587;83;21039;-72
2022/10/05 10:02:46;;;;;;;3.85;1.50;;;;;;;14.72;54.69;100952.48;1681151;83;21818;-72
2022/10/05 10:05:24;;;;;;;4.65;2.77;;;;;;;14.73;54.56;100956.83;1648671;85;20960;-70
2022/10/05 10:08:15;;;;;;;4.58;2.90;;;;;;;14.71;54.02;100950.80;1661788;85;21037;-70
2022/10/05 10:10:51;;;;;;;3.15;1.80;;;;;;;14.69;54.15;100954.09;1656543;85;21080;-71
2022/10/05 10:13:44;;;;;;;1.87;1.60;;;;;;;14.85;54.65;100942.44;1665532;85;21044;-70
2022/10/05 10:16:28;;;;;;;2.65;1.40;;;;;;;15.10;53.79;100945.95;1655188;85;22013;-70
2022/10/05 10:19:23;;;;;;;1.77;1.10;;;;;;;15.44;52.50;100933.58;1657945;85;20992;-69
2022/10/05 10:22:13;;;;;;;1.82;1.20;;;;;;;15.61;50.95;100938.73;1657818;85;21025;-71
2022/10/05 10:25:07;;;;;;;2.40;1.40;;;;;;;15.52;51.03;100934.22;1663362;85;21023;-70
2022/10/05 10:28:12;;;;;;;3.97;1.47;;;;;;;15.38;51.46;100932.83;1682896;83;21061;-69
2022/10/05 10:31:31;;;;;;;2.08;1.22;;;;;;;15.27;51.58;100940.94;1679492;83;22031;-71
2022/10/05 10:34:23;;;;;;;1.70;1.20;;;;;;;15.20;52.00;100923.34;1689159;82;21026;-70
2022/10/05 10:37:24;;;;;;;4.12;1.40;;;;;;;15.16;52.01;100928.60;1699108;83;21287;-70
2022/10/05 10:40:15;;;;;;;2.33;1.30;;;;;;;15.12;52.46;100928.02;1725102;83;21046;-70
2022/10/05 10:42:58;;;;;;;2.15;1.10;;;;;;;15.14;52.60;100930.54;1686039;84;21016;-70
2022/10/05 10:45:39;;;;;;;2.93;1.37;;;;;;;15.05;52.40;100928.20;1687100;84;21604;-70
2022/10/05 10:48:27;;;;;;;3.47;1.22;;;;;;;15.00;52.97;100932.28;1689339;83;20932;-70
2022/10/05 10:51:30;;;;;;;2.35;1.15;;;;;;;15.04;53.77;100942.49;1718661;82;21062;-69
2022/10/05 10:54:39;;;;;;;1.72;1.22;;;;;;;15.28;52.91;100927.49;1693699;83;21025;-70
2022/10/05 10:57:14;;;;;;;4.08;1.05;;;;;;;15.63;52.17;100933.64;1687222;85;20994;-69
2022/10/05 11:00:05;;;;;;;3.72;1.07;;;;;;;15.91;51.49;100937.73;1695856;83;21866;-70
2022/10/05 11:02:58;;;;;;;3.98;1.15;;;;;;;15.92;50.15;100951.39;1687432;84;20956;-69
2022/10/05 11:05:40;;;;;;;4.05;1.30;;;;;;;15.77;50.48;100948.34;1688435;85;21003;-70
2022/10/05 11:08:38;;;;;;;4.05;1.00;;;;;;;15.65;51.02;100942.33;1687698;83;21078;-70
2022/10/05 11:11:41;;;;;;;2.12;1.07;;;;;;;15.59;51.54;100950.83;1717260;82;21013;-68
2022/10/05 11:14:22;;;;;;;3.55;1.10;;;;;;;15.62;51.10;100957.23;1677816;85;22495;-69
2022/10/05 11:17:20;;;;;;;2.90;1.20;;;;;;;15.66;51.44;100946.66;1698079;83;21060;-69
2022/10/05 11:20:23;;;;;;;1.35;1.07;;;;;;;15.75;51.52;100956.97;1716366;83;21098;-71
2022/10/05 11:23:23;;;;;;;3.40;1.90;;;;;;;15.81;51.38;100958.20;1670886;84;21062;-71
2022/10/05 11:26:14;;;;;;;4.05;2.02;;;;;;;15.78;51.38;100952.68;1710026;81;20861;-72
2022/10/05 11:29:22;;;;;;;3.33;1.07;;;;;;;15.78;51.28;100954.51;1718089;83;21927;-69
2022/10/05 11:32:18;;;;;;;5.60;1.75;;;;;;;15.76;50.92;100955.98;1687016;85;21004;-69
2022/10/05 11:35:25;;;;;;;4.33;1.85;;;;;;;15.71;50.83;100963.54;1718053;82;20979;-69
2022/10/05 11:38:15;;;;;;;3.20;1.40;;;;;;;15.65;51.30;100962.30;1691070;83;21063;-69
2022/10/05 11:41:22;;;;;;;1.90;1.10;;;;;;;15.55;51.52;100968.08;1694779;83;20972;-71
2022/10/05 11:44:05;;;;;;;3.52;1.32;;;;;;;15.50;51.43;100964.98;1703853;82;22461;-70
2022/10/05 11:46:52;;;;;;;1.22;0.93;;;;;;;15.41;51.68;100957.33;1723107;83;20943;-69
2022/10/05 11:49:45;;;;;;;2.45;1.20;;;;;;;15.34;51.80;100955.36;1643502;84;21039;-69
2022/10/05 11:52:29;;;;;;;1.30;0.70;;;;;;;15.30;52.30;100953.96;1721682;83;21058;-69
2022/10/05 11:55:19;;;;;;;;;;;;;;;15.29;52.42;100961.59;1725185;82;21004;-73
2022/10/05 11:58:01;;;;;;;2.30;1.25;;;;;;;15.28;52.50;100963.42;1711490;83;21939;-69
2022/10/05 12:00:45;;;;;;;2.75;1.17;;;;;;;15.25;52.70;100965.50;1679901;83;20969;-69
2022/10/05 12:03:40;;;;;;;1.60;1.10;;;;;;;15.22;52.47;100954.64;1721449;83;21067;-69
2022/10/05 12:06:41;;;;;;;3.02;1.17;;;;;;;15.21;52.84;100946.80;1693141;84;21501;-69
2022/10/05 12:09:38;;;;;;;6.22;1.00;;;;;;;15.22;53.04;100945.33;1709309;82;21469;-69
2022/10/05 12:12:13;;;;;;;2.47;1.30;;;;;;;15.22;53.13;100952.47;1690311;83;22585;-69
2022/10/05 12:14:51;;;;;;;4.25;1.30;;;;;;;15.18;53.03;100958.57;1720096;83;21033;-69
2022/10/05 12:17:26;;;;;;;4.92;1.95;;;;;;;15.13;53.12;100963.45;1689806;83;21600;-70
2022/10/05 12:19:58;;;;;;;2.27;1.40;;;;;;;15.09;53.23;100954.07;1721329;82;21003;-69
2022/10/05 12:22:37;;;;;;;1.85;1.17;;;;;;;15.08;53.47;100961.21;1691284;83;20959;-70
2022/10/05 12:25:25;;;;;;;1.80;1.20;;;;;;;15.07;53.63;100965.34;1706835;82;21768;-70
2022/10/05 12:27:55;;;;;;;2.37;1.20;;;;;;;15.04;53.32;100970.91;1691079;83;21035;-69
2022/10/05 12:31:03;;;;;;;2.67;1.10;;;;;;;14.99;53.33;100963.36;1722847;81;21011;-70
2022/10/05 12:33:41;;;;;;;1.27;1.00;;;;;;;14.89;53.03;100970.47;1681288;83;21081;-69
2022/10/05 12:36:16;;;;;;;2.83;1.37;;;;;;;14.85;53.09;100975.20;1673435;84;21019;-69
2022/10/05 12:38:54;;;;;;;2.47;1.30;;;;;;;14.85;53.68;100977.02;1716412;83;21999;-69
2022/10/05 12:41:30;;;;;;;4.75;1.65;;;;;;;14.88;53.75;100980.76;1703940;83;21530;-69
2022/10/05 12:44:23;;;;;;;2.55;1.20;;;;;;;14.89;53.96;100983.77;1722711;82;21569;-70
2022/10/05 12:47:11;;;;;;;2.62;1.40;;;;;;;14.88;53.39;100977.61;1716289;83;21128;-69
2022/10/05 12:49:49;;;;;;;3.65;1.60;;;;;;;14.85;53.63;100984.99;1716828;83;21086;-69
2022/10/05 12:52:48;;;;;;;4.55;2.10;;;;;;;14.83;53.87;100985.63;1715785;83;21853;-70
2022/10/05 12:55:35;;;;;;;3.65;1.92;;;;;;;14.81;54.16;100992.41;1704876;83;21054;-69
2022/10/05 12:58:20;;;;;;;3.92;1.80;;;;;;;14.82;54.50;100998.57;1716531;83;20984;-70
2022/10/05 13:00:56;;;;;;;2.33;1.50;;;;;;;14.81;54.21;101008.86;1705889;83;20983;-69
2022/10/05 13:04:06;;;;;;;2.50;1.25;;;;;;;14.81;54.27;101007.03;1680694;83;21118;-70
2022/10/05 13:06:48;;;;;;;2.30;1.52;;;;;;;14.77;54.08;101008.30;1716471;83;22353;-69